sensor_id;sensor_type;location;lat;lon;timestamp;pressure;altitude;pressure_sealevel;temperature;humidity
61359;BME280;47228;46.762;23.598;2022-09-03T00:01:49;97219.25;;;14.58;87.84
61359;BME280;47228;46.762;23.598;2022-09-03T00:04:27;97217.31;;;14.57;88.05
61359;BME280;47228;46.762;23.598;2022-09-03T00:07:05;97217.77;;;14.57;88.20
61359;BME280;47228;46.762;23.598;2022-09-03T00:09:43;97221.21;;;14.57;88.05
61359;BME280;47228;46.762;23.598;2022-09-03T00:12:18;97219.63;;;14.58;88.15
61359;BME280;47228;46.762;23.598;2022-09-03T00:14:55;97219.74;;;14.59;87.92
61359;BME280;47228;46.762;23.598;2022-09-03T00:18:05;97222.98;;;14.57;87.80
61359;BME280;47228;46.762;23.598;2022-09-03T00:20:58;97220.49;;;14.56;87.75
61359;BME280;47228;46.762;23.598;2022-09-03T00:23:38;97218.30;;;14.57;87.88
61359;BME280;47228;46.762;23.598;2022-09-03T00:31:53;97216.12;;;14.62;88.23
61359;BME280;47228;46.762;23.598;2022-09-03T00:34:35;97215.63;;;14.64;88.08
61359;BME280;47228;46.762;23.598;2022-09-03T00:37:08;97219.35;;;14.65;87.92
61359;BME280;47228;46.762;23.598;2022-09-03T00:39:42;97218.03;;;14.66;87.63
61359;BME280;47228;46.762;23.598;2022-09-03T00:48:05;97220.81;;;14.66;87.93
61359;BME280;47228;46.762;23.598;2022-09-03T00:53:55;97213.89;;;14.65;87.62
61359;BME280;47228;46.762;23.598;2022-09-03T01:04:48;97218.44;;;14.61;87.82
61359;BME280;47228;46.762;23.598;2022-09-03T01:07:31;97221.14;;;14.62;87.90
61359;BME280;47228;46.762;23.598;2022-09-03T01:10:22;97222.98;;;14.63;87.79
61359;BME280;47228;46.762;23.598;2022-09-03T01:35:49;97233.98;;;14.63;87.70
61359;BME280;47228;46.762;23.598;2022-09-03T01:38:31;97232.80;;;14.63;88.17
61359;BME280;47228;46.762;23.598;2022-09-03T01:46:39;97232.40;;;14.68;87.79
61359;BME280;47228;46.762;23.598;2022-09-03T01:49:29;97232.79;;;14.68;87.87
61359;BME280;47228;46.762;23.598;2022-09-03T01:52:25;97230.30;;;14.70;87.83
61359;BME280;47228;46.762;23.598;2022-09-03T01:57:44;97228.58;;;14.69;87.82
61359;BME280;47228;46.762;23.598;2022-09-03T02:00:18;97235.36;;;14.69;87.97
61359;BME280;47228;46.762;23.598;2022-09-03T02:02:51;97236.79;;;14.68;87.55
61359;BME280;47228;46.762;23.598;2022-09-03T02:05:22;97240.81;;;14.68;87.69
61359;BME280;47228;46.762;23.598;2022-09-03T02:08:04;97240.41;;;14.68;87.75
61359;BME280;47228;46.762;23.598;2022-09-03T02:13:24;97240.88;;;14.64;87.78
61359;BME280;47228;46.762;23.598;2022-09-03T02:15:58;97243.42;;;14.66;88.01
61359;BME280;47228;46.762;23.598;2022-09-03T02:18:32;97246.16;;;14.69;87.94
61359;BME280;47228;46.762;23.598;2022-09-03T02:21:00;97253.40;;;14.70;87.91
61359;BME280;47228;46.762;23.598;2022-09-03T02:23:28;97251.96;;;14.70;87.81
61359;BME280;47228;46.762;23.598;2022-09-03T02:26:00;97248.52;;;14.69;87.41
61359;BME280;47228;46.762;23.598;2022-09-03T02:28:31;97248.92;;;14.68;87.39
61359;BME280;47228;46.762;23.598;2022-09-03T02:30:59;97248.36;;;14.67;87.54
61359;BME280;47228;46.762;23.598;2022-09-03T02:33:29;97251.98;;;14.66;87.77
61359;BME280;47228;46.762;23.598;2022-09-03T02:35:58;97250.91;;;14.66;87.72
61359;BME280;47228;46.762;23.598;2022-09-03T02:38:26;97248.87;;;14.66;87.70
61359;BME280;47228;46.762;23.598;2022-09-03T02:40:55;97248.08;;;14.64;87.50
61359;BME280;47228;46.762;23.598;2022-09-03T02:43:32;97246.12;;;14.63;87.62
61359;BME280;47228;46.762;23.598;2022-09-03T02:46:04;97248.04;;;14.62;87.64
61359;BME280;47228;46.762;23.598;2022-09-03T02:48:34;97246.73;;;14.61;87.50
61359;BME280;47228;46.762;23.598;2022-09-03T02:51:03;97249.20;;;14.60;87.57
61359;BME280;47228;46.762;23.598;2022-09-03T02:53:41;97251.83;;;14.59;87.68
61359;BME280;47228;46.762;23.598;2022-09-03T02:56:10;97258.67;;;14.60;87.82
61359;BME280;47228;46.762;23.598;2022-09-03T02:58:39;97265.35;;;14.62;87.96
61359;BME280;47228;46.762;23.598;2022-09-03T03:01:07;97261.47;;;14.63;87.87
61359;BME280;47228;46.762;23.598;2022-09-03T03:03:35;97256.61;;;14.63;87.76
61359;BME280;47228;46.762;23.598;2022-09-03T03:06:04;97256.23;;;14.63;87.65
61359;BME280;47228;46.762;23.598;2022-09-03T03:08:33;97255.33;;;14.63;87.59
61359;BME280;47228;46.762;23.598;2022-09-03T03:11:01;97256.66;;;14.63;87.80
61359;BME280;47228;46.762;23.598;2022-09-03T03:13:30;97257.24;;;14.62;87.64
61359;BME280;47228;46.762;23.598;2022-09-03T03:16:04;97261.52;;;14.61;87.49
61359;BME280;47228;46.762;23.598;2022-09-03T03:18:35;97263.39;;;14.60;87.63
61359;BME280;47228;46.762;23.598;2022-09-03T03:21:08;97262.76;;;14.58;87.60
61359;BME280;47228;46.762;23.598;2022-09-03T03:23:37;97262.93;;;14.59;87.51
61359;BME280;47228;46.762;23.598;2022-09-03T03:26:08;97265.74;;;14.58;87.70
61359;BME280;47228;46.762;23.598;2022-09-03T03:28:37;97263.14;;;14.58;87.50
61359;BME280;47228;46.762;23.598;2022-09-03T03:31:11;97266.83;;;14.58;87.52
61359;BME280;47228;46.762;23.598;2022-09-03T03:33:40;97266.83;;;14.56;87.53
61359;BME280;47228;46.762;23.598;2022-09-03T03:36:10;97263.21;;;14.55;87.88
61359;BME280;47228;46.762;23.598;2022-09-03T03:38:40;97261.02;;;14.55;88.03
61359;BME280;47228;46.762;23.598;2022-09-03T03:41:10;97260.77;;;14.55;87.87
61359;BME280;47228;46.762;23.598;2022-09-03T03:43:39;97260.37;;;14.56;88.02
61359;BME280;47228;46.762;23.598;2022-09-03T03:46:08;97261.71;;;14.57;87.86
61359;BME280;47228;46.762;23.598;2022-09-03T03:48:38;97263.05;;;14.56;87.71
61359;BME280;47228;46.762;23.598;2022-09-03T03:51:08;97261.06;;;14.54;88.04
61359;BME280;47228;46.762;23.598;2022-09-03T03:53:37;97260.19;;;14.53;87.71
61359;BME280;47228;46.762;23.598;2022-09-03T03:56:09;97257.35;;;14.53;87.82
61359;BME280;47228;46.762;23.598;2022-09-03T03:58:39;97260.39;;;14.53;88.05
61359;BME280;47228;46.762;23.598;2022-09-03T04:01:19;97258.34;;;14.52;88.32
61359;BME280;47228;46.762;23.598;2022-09-03T04:03:48;97257.83;;;14.51;88.05
61359;BME280;47228;46.762;23.598;2022-09-03T04:06:18;97255.13;;;14.50;88.17
61359;BME280;47228;46.762;23.598;2022-09-03T04:08:47;97253.42;;;14.50;88.24
61359;BME280;47228;46.762;23.598;2022-09-03T04:11:19;97251.98;;;14.50;88.18
61359;BME280;47228;46.762;23.598;2022-09-03T04:13:49;97251.23;;;14.50;88.21
61359;BME280;47228;46.762;23.598;2022-09-03T04:16:20;97251.05;;;14.48;88.09
61359;BME280;47228;46.762;23.598;2022-09-03T04:18:49;97252.79;;;14.47;88.22
61359;BME280;47228;46.762;23.598;2022-09-03T04:21:26;97253.28;;;14.48;88.06
61359;BME280;47228;46.762;23.598;2022-09-03T04:23:56;97259.41;;;14.47;88.15
61359;BME280;47228;46.762;23.598;2022-09-03T04:26:27;97262.91;;;14.47;88.10
61359;BME280;47228;46.762;23.598;2022-09-03T04:29:00;97263.56;;;14.47;88.41
61359;BME280;47228;46.762;23.598;2022-09-03T04:31:29;97264.80;;;14.47;88.06
61359;BME280;47228;46.762;23.598;2022-09-03T04:33:58;97268.10;;;14.46;88.08
61359;BME280;47228;46.762;23.598;2022-09-03T04:36:28;97273.13;;;14.46;88.40
61359;BME280;47228;46.762;23.598;2022-09-03T04:38:59;97271.41;;;14.47;88.10
61359;BME280;47228;46.762;23.598;2022-09-03T04:41:29;97273.77;;;14.47;87.99
61359;BME280;47228;46.762;23.598;2022-09-03T04:43:59;97271.67;;;14.44;87.91
61359;BME280;47228;46.762;23.598;2022-09-03T04:46:28;97273.24;;;14.41;87.93
61359;BME280;47228;46.762;23.598;2022-09-03T04:49:01;97269.37;;;14.39;88.36
61359;BME280;47228;46.762;23.598;2022-09-03T04:51:30;97267.06;;;14.39;88.30
61359;BME280;47228;46.762;23.598;2022-09-03T04:54:00;97262.98;;;14.40;88.49
61359;BME280;47228;46.762;23.598;2022-09-03T04:56:31;97270.64;;;14.42;88.55
61359;BME280;47228;46.762;23.598;2022-09-03T04:59:02;97275.21;;;14.44;88.80
61359;BME280;47228;46.762;23.598;2022-09-03T05:01:34;97282.25;;;14.46;88.86
61359;BME280;47228;46.762;23.598;2022-09-03T05:04:03;97288.84;;;14.47;88.35
61359;BME280;47228;46.762;23.598;2022-09-03T05:06:33;97288.08;;;14.46;88.52
61359;BME280;47228;46.762;23.598;2022-09-03T05:09:02;97288.61;;;14.46;88.73
61359;BME280;47228;46.762;23.598;2022-09-03T05:11:30;97289.70;;;14.47;88.66
61359;BME280;47228;46.762;23.598;2022-09-03T05:13:59;97286.95;;;14.48;88.58
61359;BME280;47228;46.762;23.598;2022-09-03T05:16:28;97284.05;;;14.48;88.45
61359;BME280;47228;46.762;23.598;2022-09-03T05:18:59;97282.91;;;14.49;88.56
61359;BME280;47228;46.762;23.598;2022-09-03T05:21:28;97282.59;;;14.50;88.55
61359;BME280;47228;46.762;23.598;2022-09-03T05:23:58;97282.30;;;14.51;88.67
61359;BME280;47228;46.762;23.598;2022-09-03T05:26:29;97289.64;;;14.51;88.22
61359;BME280;47228;46.762;23.598;2022-09-03T05:29:00;97298.54;;;14.53;88.55
61359;BME280;47228;46.762;23.598;2022-09-03T05:31:29;97301.84;;;14.54;88.67
61359;BME280;47228;46.762;23.598;2022-09-03T05:34:02;97304.30;;;14.56;88.44
61359;BME280;47228;46.762;23.598;2022-09-03T05:36:35;97305.45;;;14.58;88.51
61359;BME280;47228;46.762;23.598;2022-09-03T05:39:04;97308.80;;;14.57;88.37
61359;BME280;47228;46.762;23.598;2022-09-03T05:41:33;97310.11;;;14.58;88.30
61359;BME280;47228;46.762;23.598;2022-09-03T05:44:01;97310.97;;;14.60;88.63
61359;BME280;47228;46.762;23.598;2022-09-03T05:46:32;97315.52;;;14.61;88.07
61359;BME280;47228;46.762;23.598;2022-09-03T05:49:04;97320.50;;;14.58;87.90
61359;BME280;47228;46.762;23.598;2022-09-03T05:51:34;97321.02;;;14.57;88.22
61359;BME280;47228;46.762;23.598;2022-09-03T05:54:03;97321.20;;;14.59;88.22
61359;BME280;47228;46.762;23.598;2022-09-03T05:56:32;97317.29;;;14.58;88.00
61359;BME280;47228;46.762;23.598;2022-09-03T05:59:02;97315.98;;;14.60;88.45
61359;BME280;47228;46.762;23.598;2022-09-03T06:01:44;97320.36;;;14.62;88.30
61359;BME280;47228;46.762;23.598;2022-09-03T06:04:20;97324.86;;;14.63;88.32
61359;BME280;47228;46.762;23.598;2022-09-03T06:06:48;97323.01;;;14.61;88.18
61359;BME280;47228;46.762;23.598;2022-09-03T06:09:19;97327.74;;;14.60;87.93
61359;BME280;47228;46.762;23.598;2022-09-03T06:11:50;97327.89;;;14.62;88.59
61359;BME280;47228;46.762;23.598;2022-09-03T06:14:19;97330.63;;;14.65;88.38
61359;BME280;47228;46.762;23.598;2022-09-03T06:16:49;97335.59;;;14.66;88.13
61359;BME280;47228;46.762;23.598;2022-09-03T06:19:19;97338.09;;;14.66;88.23
61359;BME280;47228;46.762;23.598;2022-09-03T06:21:47;97339.31;;;14.67;88.30
61359;BME280;47228;46.762;23.598;2022-09-03T06:24:20;97336.90;;;14.69;88.29
61359;BME280;47228;46.762;23.598;2022-09-03T06:26:55;97337.39;;;14.72;88.12
61359;BME280;47228;46.762;23.598;2022-09-03T06:29:24;97338.44;;;14.73;88.19
61359;BME280;47228;46.762;23.598;2022-09-03T06:31:52;97341.14;;;14.75;88.33
61359;BME280;47228;46.762;23.598;2022-09-03T06:34:20;97343.48;;;14.74;88.12
61359;BME280;47228;46.762;23.598;2022-09-03T06:36:49;97348.70;;;14.74;87.91
61359;BME280;47228;46.762;23.598;2022-09-03T06:39:21;97349.69;;;14.74;87.92
61359;BME280;47228;46.762;23.598;2022-09-03T06:41:49;97347.41;;;14.76;88.11
61359;BME280;47228;46.762;23.598;2022-09-03T06:44:24;97346.84;;;14.76;88.19
61359;BME280;47228;46.762;23.598;2022-09-03T06:46:52;97347.37;;;14.77;88.64
61359;BME280;47228;46.762;23.598;2022-09-03T06:49:20;97347.39;;;14.78;88.36
61359;BME280;47228;46.762;23.598;2022-09-03T06:51:49;97346.27;;;14.80;88.38
61359;BME280;47228;46.762;23.598;2022-09-03T06:54:17;97341.47;;;14.81;88.20
61359;BME280;47228;46.762;23.598;2022-09-03T06:56:45;97341.36;;;14.83;88.39
61359;BME280;47228;46.762;23.598;2022-09-03T06:59:14;97340.57;;;14.83;88.14
61359;BME280;47228;46.762;23.598;2022-09-03T07:01:42;97340.36;;;14.86;88.57
61359;BME280;47228;46.762;23.598;2022-09-03T07:04:14;97344.13;;;14.90;88.85
61359;BME280;47228;46.762;23.598;2022-09-03T07:06:46;97348.99;;;14.94;88.97
61359;BME280;47228;46.762;23.598;2022-09-03T07:09:15;97349.92;;;14.97;89.02
61359;BME280;47228;46.762;23.598;2022-09-03T07:11:45;97353.92;;;15.01;89.09
61359;BME280;47228;46.762;23.598;2022-09-03T07:14:16;97359.76;;;15.06;88.77
61359;BME280;47228;46.762;23.598;2022-09-03T07:16:47;97361.39;;;15.10;88.58
61359;BME280;47228;46.762;23.598;2022-09-03T07:19:15;97362.39;;;15.14;88.19
61359;BME280;47228;46.762;23.598;2022-09-03T07:21:44;97363.21;;;15.15;87.94
61359;BME280;47228;46.762;23.598;2022-09-03T07:24:18;97366.34;;;15.16;88.27
61359;BME280;47228;46.762;23.598;2022-09-03T07:26:49;97372.63;;;15.17;87.56
61359;BME280;47228;46.762;23.598;2022-09-03T07:29:17;97375.81;;;15.16;87.46
61359;BME280;47228;46.762;23.598;2022-09-03T07:31:49;97375.11;;;15.16;87.67
61359;BME280;47228;46.762;23.598;2022-09-03T07:34:20;97381.40;;;15.17;87.86
61359;BME280;47228;46.762;23.598;2022-09-03T07:36:53;97382.00;;;15.15;87.60
61359;BME280;47228;46.762;23.598;2022-09-03T07:39:21;97387.70;;;15.14;87.89
61359;BME280;47228;46.762;23.598;2022-09-03T07:41:49;97385.55;;;15.18;88.10
61359;BME280;47228;46.762;23.598;2022-09-03T07:44:18;97382.13;;;15.23;88.15
61359;BME280;47228;46.762;23.598;2022-09-03T07:46:47;97384.30;;;15.30;88.50
61359;BME280;47228;46.762;23.598;2022-09-03T07:49:19;97384.35;;;15.36;88.29
61359;BME280;47228;46.762;23.598;2022-09-03T07:51:49;97386.46;;;15.43;88.00
61359;BME280;47228;46.762;23.598;2022-09-03T07:54:19;97388.95;;;15.49;88.09
61359;BME280;47228;46.762;23.598;2022-09-03T07:56:48;97392.54;;;15.55;87.67
61359;BME280;47228;46.762;23.598;2022-09-03T07:59:16;97391.36;;;15.59;87.22
61359;BME280;47228;46.762;23.598;2022-09-03T08:01:45;97392.80;;;15.63;87.01
61359;BME280;47228;46.762;23.598;2022-09-03T08:04:13;97392.09;;;15.66;86.24
61359;BME280;47228;46.762;23.598;2022-09-03T08:06:41;97392.06;;;15.67;85.80
61359;BME280;47228;46.762;23.598;2022-09-03T08:09:11;97389.11;;;15.69;86.52
61359;BME280;47228;46.762;23.598;2022-09-03T08:11:42;97391.88;;;15.73;86.71
61359;BME280;47228;46.762;23.598;2022-09-03T08:14:12;97397.30;;;15.79;86.84
61359;BME280;47228;46.762;23.598;2022-09-03T08:16:46;97399.58;;;15.84;86.62
61359;BME280;47228;46.762;23.598;2022-09-03T08:19:16;97401.21;;;15.90;86.85
61359;BME280;47228;46.762;23.598;2022-09-03T08:21:47;97401.98;;;15.95;86.40
61359;BME280;47228;46.762;23.598;2022-09-03T08:24:16;97401.41;;;15.99;85.81
61359;BME280;47228;46.762;23.598;2022-09-03T08:26:47;97395.46;;;16.01;85.01
61359;BME280;47228;46.762;23.598;2022-09-03T08:29:20;97398.53;;;16.05;85.44
61359;BME280;47228;46.762;23.598;2022-09-03T08:31:49;97395.45;;;16.09;85.11
61359;BME280;47228;46.762;23.598;2022-09-03T08:34:17;97397.59;;;16.09;84.43
61359;BME280;47228;46.762;23.598;2022-09-03T08:36:46;97394.39;;;16.10;84.78
61359;BME280;47228;46.762;23.598;2022-09-03T08:39:14;97395.02;;;16.15;85.34
61359;BME280;47228;46.762;23.598;2022-09-03T08:44:48;97399.65;;;16.24;85.80
61359;BME280;47228;46.762;23.598;2022-09-03T08:47:33;97400.95;;;16.29;85.25
61359;BME280;47228;46.762;23.598;2022-09-03T08:50:15;97400.45;;;16.30;84.57
61359;BME280;47228;46.762;23.598;2022-09-03T09:00:31;97408.52;;;16.24;83.95
61359;BME280;47228;46.762;23.598;2022-09-03T09:14:56;97412.72;;;16.21;84.43
61359;BME280;47228;46.762;23.598;2022-09-03T09:17:59;97415.29;;;16.24;84.95
61359;BME280;47228;46.762;23.598;2022-09-03T09:20:47;97413.88;;;16.26;84.55
61359;BME280;47228;46.762;23.598;2022-09-03T09:23:31;97414.34;;;16.27;84.94
61359;BME280;47228;46.762;23.598;2022-09-03T09:26:00;97415.15;;;16.31;84.96
61359;BME280;47228;46.762;23.598;2022-09-03T09:28:34;97417.50;;;16.30;84.66
61359;BME280;47228;46.762;23.598;2022-09-03T09:31:06;97422.47;;;16.29;84.07
61359;BME280;47228;46.762;23.598;2022-09-03T09:33:39;97426.77;;;16.27;83.64
61359;BME280;47228;46.762;23.598;2022-09-03T09:36:10;97423.20;;;16.26;83.33
61359;BME280;47228;46.762;23.598;2022-09-03T09:38:41;97426.81;;;16.24;83.33
61359;BME280;47228;46.762;23.598;2022-09-03T09:41:17;97427.88;;;16.23;83.78
61359;BME280;47228;46.762;23.598;2022-09-03T09:43:46;97426.50;;;16.24;84.31
61359;BME280;47228;46.762;23.598;2022-09-03T09:46:26;97428.27;;;16.24;84.09
61359;BME280;47228;46.762;23.598;2022-09-03T09:48:57;97431.05;;;16.23;83.84
61359;BME280;47228;46.762;23.598;2022-09-03T09:51:30;97435.30;;;16.25;84.39
61359;BME280;47228;46.762;23.598;2022-09-03T09:56:35;97431.80;;;16.30;84.37
61359;BME280;47228;46.762;23.598;2022-09-03T09:59:08;97434.53;;;16.32;84.12
61359;BME280;47228;46.762;23.598;2022-09-03T10:01:41;97431.96;;;16.35;84.12
61359;BME280;47228;46.762;23.598;2022-09-03T10:04:27;97433.55;;;16.37;84.18
61359;BME280;47228;46.762;23.598;2022-09-03T10:07:23;97435.20;;;16.39;83.28
61359;BME280;47228;46.762;23.598;2022-09-03T10:10:05;97433.66;;;16.40;82.90
61359;BME280;47228;46.762;23.598;2022-09-03T10:12:43;97435.59;;;16.37;82.34
61359;BME280;47228;46.762;23.598;2022-09-03T10:15:24;97429.86;;;16.38;83.38
61359;BME280;47228;46.762;23.598;2022-09-03T10:20:42;97434.77;;;16.52;82.88
61359;BME280;47228;46.762;23.598;2022-09-03T10:23:25;97433.80;;;16.57;82.81
61359;BME280;47228;46.762;23.598;2022-09-03T10:26:09;97432.07;;;16.65;83.18
61359;BME280;47228;46.762;23.598;2022-09-03T10:28:41;97432.60;;;16.77;83.49
61359;BME280;47228;46.762;23.598;2022-09-03T10:31:31;97431.25;;;16.86;82.25
61359;BME280;47228;46.762;23.598;2022-09-03T10:34:13;97430.97;;;17.02;82.48
61359;BME280;47228;46.762;23.598;2022-09-03T10:39:43;97424.52;;;17.38;82.12
61359;BME280;47228;46.762;23.598;2022-09-03T10:42:36;97419.11;;;17.62;81.27
61359;BME280;47228;46.762;23.598;2022-09-03T11:05:33;97397.02;;;19.48;74.36
61359;BME280;47228;46.762;23.598;2022-09-03T11:08:11;97399.79;;;19.62;73.74
61359;BME280;47228;46.762;23.598;2022-09-03T11:10:55;97398.67;;;19.73;72.45
61359;BME280;47228;46.762;23.598;2022-09-03T11:16:31;97402.73;;;19.80;71.95
61359;BME280;47228;46.762;23.598;2022-09-03T11:19:03;97400.54;;;19.79;71.72
61359;BME280;47228;46.762;23.598;2022-09-03T11:21:35;97397.78;;;19.77;70.98
61359;BME280;47228;46.762;23.598;2022-09-03T11:26:43;97399.74;;;19.83;71.58
61359;BME280;47228;46.762;23.598;2022-09-03T11:32:04;97394.11;;;20.12;71.11
61359;BME280;47228;46.762;23.598;2022-09-03T11:34:49;97396.70;;;20.35;69.77
61359;BME280;47228;46.762;23.598;2022-09-03T11:37:19;97396.05;;;20.55;69.22
61359;BME280;47228;46.762;23.598;2022-09-03T11:42:37;97391.90;;;20.61;68.21
61359;BME280;47228;46.762;23.598;2022-09-03T11:47:50;97390.98;;;20.54;68.07
61359;BME280;47228;46.762;23.598;2022-09-03T11:52:52;97395.25;;;20.35;67.23
61359;BME280;47228;46.762;23.598;2022-09-03T11:55:31;97395.06;;;20.23;66.88
61359;BME280;47228;46.762;23.598;2022-09-03T11:58:25;97398.14;;;20.08;67.00
61359;BME280;47228;46.762;23.598;2022-09-03T12:00:54;97397.31;;;19.97;67.74
61359;BME280;47228;46.762;23.598;2022-09-03T12:03:44;97395.31;;;19.93;67.66
61359;BME280;47228;46.762;23.598;2022-09-03T12:18:28;97405.19;;;19.75;68.22
61359;BME280;47228;46.762;23.598;2022-09-03T12:26:10;97411.04;;;19.92;68.23
61359;BME280;47228;46.762;23.598;2022-09-03T12:28:48;97407.58;;;19.99;67.52
61359;BME280;47228;46.762;23.598;2022-09-03T12:34:02;97405.95;;;20.02;67.38
61359;BME280;47228;46.762;23.598;2022-09-03T12:36:46;97404.31;;;20.01;67.20
61359;BME280;47228;46.762;23.598;2022-09-03T12:39:23;97398.66;;;20.00;67.52
61359;BME280;47228;46.762;23.598;2022-09-03T12:42:17;97394.73;;;20.05;67.61
61359;BME280;47228;46.762;23.598;2022-09-03T12:44:47;97389.66;;;20.06;66.66
61359;BME280;47228;46.762;23.598;2022-09-03T12:47:20;97387.86;;;19.98;66.48
61359;BME280;47228;46.762;23.598;2022-09-03T12:50:10;97381.83;;;19.94;67.42
61359;BME280;47228;46.762;23.598;2022-09-03T12:52:51;97377.26;;;19.95;67.69
61359;BME280;47228;46.762;23.598;2022-09-03T13:00:33;97384.46;;;19.98;66.23
61359;BME280;47228;46.762;23.598;2022-09-03T13:05:53;97383.30;;;20.07;66.34
61359;BME280;47228;46.762;23.598;2022-09-03T13:08:31;97384.04;;;20.16;66.91
61359;BME280;47228;46.762;23.598;2022-09-03T13:11:02;97385.89;;;20.24;66.56
61359;BME280;47228;46.762;23.598;2022-09-03T13:13:34;97393.50;;;20.26;65.74
61359;BME280;47228;46.762;23.598;2022-09-03T13:18:41;97393.96;;;20.17;63.93
61359;BME280;47228;46.762;23.598;2022-09-03T13:21:17;97393.01;;;20.03;64.55
61359;BME280;47228;46.762;23.598;2022-09-03T13:29:36;97389.57;;;19.90;65.92
61359;BME280;47228;46.762;23.598;2022-09-03T13:37:42;97399.47;;;19.69;65.24
61359;BME280;47228;46.762;23.598;2022-09-03T13:43:22;97399.11;;;19.56;65.54
61359;BME280;47228;46.762;23.598;2022-09-03T13:45:58;97402.30;;;19.57;66.32
61359;BME280;47228;46.762;23.598;2022-09-03T13:48:40;97400.68;;;19.66;66.39
61359;BME280;47228;46.762;23.598;2022-09-03T13:52:00;97405.57;;;19.73;66.25
61359;BME280;47228;46.762;23.598;2022-09-03T13:54:37;97408.19;;;19.71;66.13
61359;BME280;47228;46.762;23.598;2022-09-03T13:57:20;97406.79;;;19.70;66.87
61359;BME280;47228;46.762;23.598;2022-09-03T14:00:08;97407.10;;;19.68;66.59
61359;BME280;47228;46.762;23.598;2022-09-03T14:03:02;97413.39;;;19.64;66.49
61359;BME280;47228;46.762;23.598;2022-09-03T14:06:00;97410.30;;;19.61;66.79
61359;BME280;47228;46.762;23.598;2022-09-03T14:14:43;97417.30;;;19.33;67.91
61359;BME280;47228;46.762;23.598;2022-09-03T14:20:04;97412.73;;;19.37;68.38
61359;BME280;47228;46.762;23.598;2022-09-03T14:25:17;97404.77;;;19.45;67.97
61359;BME280;47228;46.762;23.598;2022-09-03T14:27:47;97406.52;;;19.48;67.74
61359;BME280;47228;46.762;23.598;2022-09-03T14:32:55;97404.88;;;19.46;67.19
61359;BME280;47228;46.762;23.598;2022-09-03T14:43:51;97410.42;;;19.30;67.48
61359;BME280;47228;46.762;23.598;2022-09-03T14:46:31;97407.72;;;19.27;67.42
61359;BME280;47228;46.762;23.598;2022-09-03T15:00:57;97414.14;;;19.20;68.12
61359;BME280;47228;46.762;23.598;2022-09-03T15:12:28;97418.94;;;19.05;67.97
61359;BME280;47228;46.762;23.598;2022-09-03T15:15:00;97419.70;;;18.98;68.22
61359;BME280;47228;46.762;23.598;2022-09-03T15:17:49;97418.98;;;18.97;68.75
61359;BME280;47228;46.762;23.598;2022-09-03T15:20:50;97418.30;;;18.98;68.73
61359;BME280;47228;46.762;23.598;2022-09-03T15:23:28;97417.04;;;18.96;69.01
61359;BME280;47228;46.762;23.598;2022-09-03T15:26:41;97419.02;;;18.95;68.88
61359;BME280;47228;46.762;23.598;2022-09-03T15:35:03;97424.42;;;18.98;69.46
61359;BME280;47228;46.762;23.598;2022-09-03T15:37:46;97426.27;;;18.99;69.74
61359;BME280;47228;46.762;23.598;2022-09-03T15:40:23;97429.11;;;18.99;70.00
61359;BME280;47228;46.762;23.598;2022-09-03T15:43:28;97430.85;;;18.98;69.95
61359;BME280;47228;46.762;23.598;2022-09-03T15:46:03;97432.94;;;18.98;70.03
61359;BME280;47228;46.762;23.598;2022-09-03T15:51:34;97432.72;;;18.98;70.26
61359;BME280;47228;46.762;23.598;2022-09-03T15:54:12;97431.30;;;18.97;69.85
61359;BME280;47228;46.762;23.598;2022-09-03T15:56:54;97430.44;;;18.95;69.78
61359;BME280;47228;46.762;23.598;2022-09-03T16:05:06;97441.98;;;18.86;70.27
61359;BME280;47228;46.762;23.598;2022-09-03T16:10:11;97446.94;;;18.81;70.41
61359;BME280;47228;46.762;23.598;2022-09-03T16:13:33;97449.77;;;18.79;70.30
61359;BME280;47228;46.762;23.598;2022-09-03T16:16:07;97451.25;;;18.77;70.69
61359;BME280;47228;46.762;23.598;2022-09-03T16:18:44;97447.79;;;18.74;70.35
61359;BME280;47228;46.762;23.598;2022-09-03T16:21:35;97445.73;;;18.67;70.22
61359;BME280;47228;46.762;23.598;2022-09-03T16:24:16;97445.95;;;18.62;70.68
61359;BME280;47228;46.762;23.598;2022-09-03T16:29:15;97450.84;;;18.56;71.59
61359;BME280;47228;46.762;23.598;2022-09-03T16:35:06;97450.56;;;18.55;72.38
61359;BME280;47228;46.762;23.598;2022-09-03T16:38:16;97452.52;;;18.51;71.81
61359;BME280;47228;46.762;23.598;2022-09-03T16:41:14;97449.71;;;18.45;71.56
61359;BME280;47228;46.762;23.598;2022-09-03T16:55:21;97458.69;;;18.30;72.37
61359;BME280;47228;46.762;23.598;2022-09-03T17:01:12;97467.35;;;18.26;72.78
61359;BME280;47228;46.762;23.598;2022-09-03T17:09:31;97473.09;;;18.16;72.42
61359;BME280;47228;46.762;23.598;2022-09-03T17:12:03;97470.16;;;18.14;72.43
61359;BME280;47228;46.762;23.598;2022-09-03T17:43:11;97501.57;;;17.73;71.04
61359;BME280;47228;46.762;23.598;2022-09-03T17:46:07;97505.98;;;17.69;71.69
61359;BME280;47228;46.762;23.598;2022-09-03T17:48:46;97511.71;;;17.66;72.65
61359;BME280;47228;46.762;23.598;2022-09-03T17:53:55;97520.52;;;17.65;71.94
61359;BME280;47228;46.762;23.598;2022-09-03T17:56:29;97517.14;;;17.63;71.78
61359;BME280;47228;46.762;23.598;2022-09-03T17:59:13;97521.70;;;17.62;72.15
61359;BME280;47228;46.762;23.598;2022-09-03T18:05:00;97527.73;;;17.63;72.70
61359;BME280;47228;46.762;23.598;2022-09-03T18:07:51;97527.90;;;17.63;72.58
61359;BME280;47228;46.762;23.598;2022-09-03T18:18:37;97535.27;;;17.62;72.21
61359;BME280;47228;46.762;23.598;2022-09-03T18:21:11;97540.63;;;17.61;71.96
61359;BME280;47228;46.762;23.598;2022-09-03T18:24:01;97542.91;;;17.58;71.60
61359;BME280;47228;46.762;23.598;2022-09-03T18:26:56;97542.85;;;17.58;71.93
61359;BME280;47228;46.762;23.598;2022-09-03T18:30:03;97541.38;;;17.57;72.75